Time;durP1;ratioP1;P1;durP2;ratioP2;P2;SDS_P1;SDS_P2;PMS_P1;PMS_P2;Temp;Humidity;BMP_temperature;BMP_pressure;BME280_temperature;BME280_humidity;BME280_pressure;Samples;Min_cycle;Max_cycle;Signal;HPM_P1;HPM_P2
2023/10/18 00:00:58;;;;;;;50.17;34.15;;;11.50;99.90;;;;;;5069774;28;20045;-78
2023/10/18 00:03:29;;;;;;;24.85;17.40;;;11.50;99.90;;;;;;5072246;28;20499;-78
2023/10/18 00:05:59;;;;;;;22.52;16.15;;;11.00;99.90;;;;;;5072689;28;20123;-78
2023/10/18 00:08:26;;;;;;;21.05;14.27;;;11.10;99.90;;;;;;5069944;28;20039;-78
2023/10/18 00:10:54;;;;;;;19.10;13.43;;;11.10;99.90;;;;;;5072382;28;20036;-79
2023/10/18 00:13:24;;;;;;;16.70;11.98;;;11.10;99.90;;;;;;5072716;28;20036;-79
2023/10/18 00:15:59;;;;;;;15.82;12.32;;;11.20;99.90;;;;;;5068818;28;20037;-78
2023/10/18 00:18:26;;;;;;;16.75;11.65;;;11.20;99.90;;;;;;5071127;28;20391;-78
2023/10/18 00:21:03;;;;;;;17.65;12.55;;;11.20;99.90;;;;;;5071161;28;20044;-77
2023/10/18 00:23:31;;;;;;;17.02;11.60;;;11.20;99.90;;;;;;5070228;28;20045;-78
2023/10/18 00:26:07;;;;;;;14.82;11.05;;;11.30;99.90;;;;;;5071859;28;20044;-78
2023/10/18 00:28:38;;;;;;;16.70;10.82;;;11.30;99.90;;;;;;5069268;28;20040;-79
2023/10/18 00:31:20;;;;;;;15.80;11.15;;;11.30;99.90;;;;;;5072963;28;20853;-78
2023/10/18 00:33:48;;;;;;;17.13;11.15;;;11.30;99.90;;;;;;5068454;28;20112;-79
2023/10/18 00:36:18;;;;;;;15.68;11.77;;;11.30;99.90;;;;;;5070086;28;20119;-78
2023/10/18 00:38:46;;;;;;;16.52;12.63;;;11.30;99.90;;;;;;5072014;28;20395;-78
2023/10/18 00:41:22;;;;;;;16.27;12.30;;;11.30;99.90;;;;;;5072978;28;20047;-79
2023/10/18 00:43:52;;;;;;;17.52;11.98;;;11.30;99.90;;;;;;5065755;28;20496;-76
2023/10/18 00:46:20;;;;;;;;;;;11.30;99.90;;;;;;5069825;28;20376;-79
2023/10/18 00:48:48;;;;;;;14.90;10.20;;;11.30;99.90;;;;;;5068810;28;19928;-79
2023/10/18 00:51:19;;;;;;;13.30;10.10;;;11.10;99.90;;;;;;5068501;28;20109;-78
2023/10/18 00:53:47;;;;;;;12.70;9.88;;;10.90;99.90;;;;;;5068913;28;20029;-79
2023/10/18 00:56:17;;;;;;;13.98;9.82;;;10.90;99.90;;;;;;5068373;28;20568;-79
2023/10/18 00:58:46;;;;;;;14.60;10.50;;;11.00;99.90;;;;;;5067782;28;20033;-78
2023/10/18 01:01:14;;;;;;;16.95;11.35;;;11.10;99.90;;;;;;5067621;28;20123;-80
2023/10/18 01:03:46;;;;;;;20.92;14.30;;;11.20;99.90;;;;;;5066950;28;20032;-80
2023/10/18 01:06:20;;;;;;;19.73;13.85;;;11.10;99.90;;;;;;5065629;28;20036;-80
2023/10/18 01:08:48;;;;;;;20.97;14.23;;;11.20;99.90;;;;;;5070965;28;20033;-79
2023/10/18 01:11:23;;;;;;;18.67;13.82;;;11.10;99.90;;;;;;5072274;28;20426;-78
2023/10/18 01:13:50;;;;;;;23.20;15.05;;;11.20;99.90;;;;;;5072034;28;20040;-80
2023/10/18 01:16:35;;;;;;;22.55;16.65;;;11.20;99.90;;;;;;5084786;28;20390;-78
2023/10/18 01:19:08;;;;;;;25.30;17.17;;;11.20;99.90;;;;;;5092140;28;20476;-81
2023/10/18 01:21:36;;;;;;;26.95;18.38;;;11.20;99.90;;;;;;5092212;28;20458;-79
2023/10/18 01:24:04;;;;;;;24.25;16.85;;;11.20;99.90;;;;;;5092153;28;20032;-80
2023/10/18 01:26:38;;;;;;;25.33;17.98;;;11.10;99.90;;;;;;5092501;28;20133;-81
2023/10/18 01:29:08;;;;;;;26.58;16.83;;;11.20;99.90;;;;;;5092311;28;20042;-81
2023/10/18 01:31:36;;;;;;;;;;;11.10;99.90;;;;;;5084398;28;20071;-78
2023/10/18 01:34:03;;;;;;;26.33;16.90;;;11.10;99.90;;;;;;5091597;28;19920;-76
2023/10/18 01:36:32;;;;;;;23.23;16.67;;;11.10;99.90;;;;;;5092046;28;20097;-80
2023/10/18 01:38:59;;;;;;;25.67;17.25;;;11.10;99.90;;;;;;5092155;28;20725;-76
2023/10/18 01:44:12;;;;;;;27.42;18.02;;;11.10;99.90;;;;;;5088545;28;20038;-79
2023/10/18 01:46:46;;;;;;;26.27;17.48;;;11.10;99.90;;;;;;5088290;28;20062;-79
2023/10/18 01:49:18;;;;;;;24.73;17.20;;;11.00;99.90;;;;;;5088340;28;20073;-79
2023/10/18 01:51:50;;;;;;;28.13;16.88;;;11.10;99.90;;;;;;5091897;28;20044;-76
2023/10/18 01:54:19;;;;;;;27.20;17.05;;;11.10;99.90;;;;;;5091122;28;20155;-79
2023/10/18 01:56:46;;;;;;;22.38;16.35;;;11.10;99.90;;;;;;5092062;28;20071;-79
2023/10/18 01:59:17;;;;;;;23.13;16.58;;;11.10;99.90;;;;;;5091106;28;20040;-79
2023/10/18 02:01:45;;;;;;;;;;;11.00;99.90;;;;;;5092142;28;20036;-77
2023/10/18 02:04:23;;;;;;;20.23;14.80;;;11.00;99.90;;;;;;5065469;28;19920;-79
2023/10/18 02:07:17;;;;;;;22.77;16.60;;;11.00;99.90;;;;;;5091287;28;20039;-80
2023/10/18 02:10:05;;;;;;;26.02;17.25;;;11.00;99.90;;;;;;5088352;28;20036;-79
2023/10/18 02:12:33;;;;;;;23.92;16.10;;;11.10;99.90;;;;;;5091963;28;20044;-79
2023/10/18 02:15:04;;;;;;;24.02;17.15;;;11.20;99.90;;;;;;5090999;28;20032;-76
2023/10/18 02:17:31;;;;;;;26.27;16.98;;;11.20;99.90;;;;;;5091818;28;20047;-76
2023/10/18 02:20:00;;;;;;;22.45;16.30;;;11.30;99.90;;;;;;5071960;28;20039;-77
2023/10/18 02:22:28;;;;;;;21.90;16.73;;;11.30;99.90;;;;;;5091131;28;20036;-78
2023/10/18 02:24:56;;;;;;;23.77;16.25;;;11.30;99.90;;;;;;5067071;28;20487;-78
2023/10/18 02:27:24;;;;;;;24.95;15.80;;;11.30;99.90;;;;;;5090051;28;20394;-77
2023/10/18 02:29:52;;;;;;;21.58;15.98;;;11.30;99.90;;;;;;5090999;28;20040;-78
2023/10/18 02:32:39;;;;;;;22.88;15.50;;;11.30;99.90;;;;;;5091062;28;20044;-78
2023/10/18 02:35:08;;;;;;;22.83;16.00;;;11.20;99.90;;;;;;5090203;28;20391;-79
2023/10/18 02:37:36;;;;;;;26.07;16.50;;;11.20;99.90;;;;;;5091364;28;20063;-78
2023/10/18 02:40:16;;;;;;;23.55;15.85;;;11.20;99.90;;;;;;5090417;28;20308;-78
2023/10/18 02:43:07;;;;;;;21.42;15.18;;;11.20;99.90;;;;;;5088897;28;20518;-79
2023/10/18 02:45:35;;;;;;;22.48;15.55;;;11.20;99.90;;;;;;5091210;28;20044;-80
2023/10/18 02:48:02;;;;;;;20.92;15.13;;;11.20;99.90;;;;;;5090615;28;20039;-81
2023/10/18 02:50:31;;;;;;;22.55;15.23;;;11.20;99.90;;;;;;5091153;28;20399;-78
2023/10/18 02:53:00;;;;;;;22.33;16.38;;;11.20;99.90;;;;;;5090284;28;20082;-78
2023/10/18 02:55:27;;;;;;;21.13;14.38;;;11.20;99.90;;;;;;5091015;28;20044;-78
2023/10/18 02:58:13;;;;;;;21.98;14.90;;;11.20;99.90;;;;;;5090574;28;20054;-77
2023/10/18 03:00:41;;;;;;;23.98;15.48;;;11.20;99.90;;;;;;5086717;28;20036;-77
2023/10/18 03:03:09;;;;;;;23.65;16.15;;;11.10;99.90;;;;;;5090340;28;20038;-76
2023/10/18 03:05:40;;;;;;;29.77;16.70;;;11.00;99.90;;;;;;5090651;28;20044;-78
2023/10/18 03:08:08;;;;;;;23.92;15.10;;;11.10;99.90;;;;;;5072493;28;20056;-78
2023/10/18 03:10:43;;;;;;;21.92;15.52;;;11.10;99.90;;;;;;5072971;28;20407;-79
2023/10/18 03:13:12;;;;;;;21.73;15.30;;;11.10;99.90;;;;;;5090258;28;20047;-79
2023/10/18 03:18:46;;;;;;;23.65;16.25;;;11.10;99.90;;;;;;5087979;28;20027;-78
2023/10/18 03:21:20;;;;;;;23.63;15.90;;;11.20;99.90;;;;;;5086288;28;20114;-78
2023/10/18 03:24:05;;;;;;;25.27;15.63;;;11.10;99.90;;;;;;5089488;28;20498;-80
2023/10/18 03:26:35;;;;;;;23.38;16.40;;;11.20;99.90;;;;;;5090178;28;20060;-81
2023/10/18 03:29:05;;;;;;;23.33;14.60;;;11.10;99.90;;;;;;5090119;28;20044;-80
2023/10/18 03:31:40;;;;;;;28.83;16.37;;;11.10;99.90;;;;;;5089881;28;20086;-80
2023/10/18 03:34:09;;;;;;;19.80;13.88;;;11.10;99.90;;;;;;5090187;28;20039;-78
2023/10/18 03:36:48;;;;;;;24.10;15.23;;;11.10;99.90;;;;;;5089980;28;20047;-78
2023/10/18 03:39:16;;;;;;;18.08;13.55;;;11.10;99.90;;;;;;5086799;28;20054;-75
2023/10/18 03:41:46;;;;;;;20.15;14.77;;;11.10;99.90;;;;;;5086354;28;20040;-77
2023/10/18 03:44:13;;;;;;;22.67;15.10;;;11.10;99.90;;;;;;5082703;28;20044;-78
2023/10/18 03:46:47;;;;;;;20.77;14.75;;;11.10;99.90;;;;;;5086095;28;20467;-77
2023/10/18 03:49:36;;;;;;;22.25;14.55;;;11.10;99.90;;;;;;5088611;28;20583;-79
2023/10/18 03:52:27;;;;;;;18.90;14.20;;;11.10;99.90;;;;;;5089492;28;20105;-78
2023/10/18 03:57:29;;;;;;;21.58;15.05;;;11.20;99.90;;;;;;5089866;28;20422;-78
2023/10/18 04:00:09;;;;;;;22.13;14.32;;;11.20;99.90;;;;;;5089254;28;20040;-79
2023/10/18 04:02:59;;;;;;;21.50;14.68;;;11.20;99.90;;;;;;5087253;28;20121;-77
2023/10/18 04:08:02;;;;;;;21.85;14.75;;;11.20;99.90;;;;;;5089142;28;20032;-79
2023/10/18 04:10:31;;;;;;;22.48;14.15;;;11.30;99.90;;;;;;5064324;28;20047;-81
2023/10/18 04:12:58;;;;;;;21.05;15.20;;;11.20;99.90;;;;;;5089228;28;20465;-80
2023/10/18 04:15:29;;;;;;;23.13;14.88;;;11.20;99.90;;;;;;5089861;28;20039;-77
2023/10/18 04:18:10;;;;;;;21.20;14.98;;;11.30;99.90;;;;;;5089490;28;20044;-78
2023/10/18 04:20:42;;;;;;;19.95;14.27;;;11.30;99.90;;;;;;5089382;28;20123;-77
2023/10/18 04:23:14;;;;;;;21.30;14.82;;;11.30;99.90;;;;;;5089328;28;20714;-76
2023/10/18 04:25:42;;;;;;;21.33;14.98;;;11.30;99.90;;;;;;5085970;28;20040;-78
2023/10/18 04:28:12;;;;;;;23.80;14.90;;;11.30;99.90;;;;;;5089049;28;20767;-78
2023/10/18 04:30:42;;;;;;;23.88;15.10;;;11.30;99.90;;;;;;5061870;28;20047;-79
2023/10/18 04:33:24;;;;;;;24.47;15.57;;;11.30;99.90;;;;;;5073142;28;20039;-79
2023/10/18 04:35:56;;;;;;;20.75;14.73;;;11.30;99.90;;;;;;5078017;28;20039;-75
2023/10/18 04:38:39;;;;;;;19.15;13.63;;;11.30;99.90;;;;;;5088985;28;20036;-79
2023/10/18 04:44:40;;;;;;;19.33;14.73;;;11.30;99.90;;;;;;5089940;28;20399;-80
2023/10/18 04:46:47;;;;;;;20.23;14.43;;;11.30;99.90;;;;;;5071069;28;20055;-79
2023/10/18 04:54:15;;;;;;;20.48;13.98;;;11.30;99.90;;;;;;5084800;28;20032;-77
2023/10/18 04:56:46;;;;;;;22.20;14.63;;;11.30;99.90;;;;;;5089390;28;20547;-80
2023/10/18 05:01:56;;;;;;;23.33;14.50;;;11.10;99.90;;;;;;5087289;28;20032;-79
2023/10/18 05:07:04;;;;;;;22.60;14.63;;;11.20;99.90;;;;;;5065931;28;20619;-84
2023/10/18 05:09:43;;;;;;;24.58;17.00;;;11.30;99.90;;;;;;5088215;28;20090;-80
2023/10/18 05:15:08;;;;;;;124.80;75.10;;;11.60;99.90;;;;;;5087114;28;20056;-79
2023/10/18 05:17:42;;;;;;;51.20;33.92;;;11.80;99.90;;;;;;5073705;28;20060;-78
2023/10/18 05:20:58;;;;;;;76.50;44.90;;;11.80;99.90;;;;;;5088638;28;20054;-82
2023/10/18 05:22:59;;;;;;;118.07;67.50;;;11.80;99.90;;;;;;5059209;28;20056;-75
2023/10/18 05:25:30;;;;;;;38.55;28.42;;;11.80;99.90;;;;;;5087952;28;20123;-84
2023/10/18 05:28:14;;;;;;;24.08;18.52;;;11.70;99.90;;;;;;5070059;28;20692;-76
2023/10/18 05:44:00;;;;;;;23.67;16.08;;;11.60;99.90;;;;;;5083860;28;20052;-85
2023/10/18 05:46:34;;;;;;;23.00;15.85;;;11.60;99.90;;;;;;5091533;28;20028;-84
2023/10/18 05:49:01;;;;;;;24.70;15.73;;;11.60;99.90;;;;;;5070119;28;20147;-83
2023/10/18 05:51:32;;;;;;;20.50;16.27;;;11.60;99.90;;;;;;5075224;28;20048;-83
2023/10/18 05:54:05;;;;;;;27.55;17.60;;;11.50;99.90;;;;;;5088243;28;20548;-84
2023/10/18 05:56:33;;;;;;;23.25;15.98;;;11.60;99.90;;;;;;5091385;28;20040;-82
2023/10/18 06:02:14;;;;;;;22.33;16.15;;;11.60;99.90;;;;;;5091646;28;20448;-80
2023/10/18 06:04:44;;;;;;;22.05;15.35;;;11.60;99.90;;;;;;5085578;28;20066;-86
2023/10/18 06:07:12;;;;;;;25.27;15.30;;;11.70;99.90;;;;;;5093049;28;20126;-79
2023/10/18 06:09:47;;;;;;;23.58;15.70;;;11.70;99.90;;;;;;5091434;28;20032;-80
2023/10/18 06:12:22;;;;;;;23.77;15.93;;;11.80;99.90;;;;;;5089628;28;20114;-80
2023/10/18 06:14:53;;;;;;;21.05;14.13;;;11.60;99.90;;;;;;5088421;28;20055;-78
2023/10/18 06:17:26;;;;;;;22.00;14.93;;;11.70;99.90;;;;;;5090745;28;20115;-80
2023/10/18 06:19:56;;;;;;;20.83;14.93;;;11.70;99.90;;;;;;5091332;28;20077;-80
2023/10/18 06:22:39;;;;;;;;;;;11.90;99.90;;;;;;5057555;28;20074;-79
2023/10/18 06:25:09;;;;;;;23.77;14.70;;;12.00;99.90;;;;;;5090605;28;19974;-81
2023/10/18 06:27:40;;;;;;;19.90;13.88;;;12.10;99.90;;;;;;5089845;28;20048;-79
2023/10/18 06:30:17;;;;;;;20.80;14.23;;;12.20;99.90;;;;;;5089443;28;20054;-80
2023/10/18 06:32:46;;;;;;;20.38;13.43;;;12.30;99.90;;;;;;5086047;28;20032;-79
2023/10/18 06:35:26;;;;;;;19.83;14.23;;;12.30;99.90;;;;;;5069793;28;20024;-80
2023/10/18 06:37:54;;;;;;;20.05;14.60;;;12.30;99.90;;;;;;5070545;28;20526;-79
2023/10/18 06:40:43;;;;;;;22.90;14.38;;;12.40;99.90;;;;;;5088002;28;20123;-81
2023/10/18 06:43:31;;;;;;;21.48;14.82;;;12.30;99.90;;;;;;5087398;28;20060;-79
2023/10/18 06:45:58;;;;;;;24.85;15.77;;;12.30;99.90;;;;;;5089007;28;20047;-80
2023/10/18 06:48:30;;;;;;;22.45;15.13;;;12.40;99.90;;;;;;5088788;28;20456;-80
2023/10/18 06:50:59;;;;;;;20.17;14.25;;;12.40;99.90;;;;;;5072414;28;20486;-80
2023/10/18 06:53:26;;;;;;;21.70;15.48;;;12.50;99.90;;;;;;5091116;28;20043;-80
2023/10/18 06:55:58;;;;;;;24.73;16.80;;;12.50;99.90;;;;;;5068680;28;20044;-80
2023/10/18 07:01:19;;;;;;;23.67;16.27;;;12.50;99.90;;;;;;5090757;28;20028;-78
2023/10/18 07:03:48;;;;;;;22.60;15.82;;;12.50;99.90;;;;;;5087187;28;20050;-79
2023/10/18 07:06:18;;;;;;;25.27;16.33;;;12.40;99.90;;;;;;5086416;28;20032;-78
2023/10/18 07:08:49;;;;;;;;;;;12.40;99.90;;;;;;5087089;28;20047;-81
2023/10/18 07:11:18;;;;;;;26.92;19.38;;;12.40;99.90;;;;;;5073037;28;20591;-79
2023/10/18 07:14:00;;;;;;;27.75;18.67;;;12.40;99.90;;;;;;5088459;28;20513;-79
2023/10/18 07:21:34;;;;;;;27.42;17.13;;;12.50;99.90;;;;;;5065977;28;20573;-80
2023/10/18 07:24:09;;;;;;;26.10;16.25;;;12.50;99.90;;;;;;5088416;28;20051;-80
2023/10/18 07:26:38;;;;;;;21.92;15.57;;;12.50;99.90;;;;;;5090322;28;20040;-79
2023/10/18 07:29:09;;;;;;;24.98;15.15;;;12.60;99.90;;;;;;5090687;28;20111;-82
2023/10/18 07:31:41;;;;;;;25.73;17.40;;;12.50;99.90;;;;;;5090549;28;20051;-79
2023/10/18 07:34:08;;;;;;;23.30;15.43;;;12.60;99.90;;;;;;5064904;28;20044;-79
2023/10/18 07:36:38;;;;;;;23.42;15.57;;;12.50;99.90;;;;;;5090326;28;20036;-79
2023/10/18 07:39:06;;;;;;;22.40;16.00;;;12.50;99.90;;;;;;5089850;28;20048;-79
2023/10/18 07:41:36;;;;;;;23.38;15.85;;;12.60;99.90;;;;;;5091326;28;20231;-80
2023/10/18 07:44:07;;;;;;;23.38;15.85;;;12.60;99.90;;;;;;5071891;28;20414;-79
2023/10/18 07:46:39;;;;;;;24.65;16.30;;;12.70;99.90;;;;;;5090355;28;20119;-78
2023/10/18 07:49:12;;;;;;;22.77;15.40;;;12.80;99.90;;;;;;5089503;28;20040;-79
2023/10/18 07:51:55;;;;;;;19.42;15.30;;;12.80;99.90;;;;;;5082299;28;20376;-79
2023/10/18 07:54:24;;;;;;;19.15;14.55;;;12.90;99.90;;;;;;5088500;28;20375;-78
2023/10/18 07:56:54;;;;;;;23.55;15.40;;;13.00;99.90;;;;;;5090455;28;20044;-78
2023/10/18 07:59:29;;;;;;;21.50;16.00;;;13.20;99.90;;;;;;5064801;28;20157;-80
2023/10/18 08:04:50;;;;;;;21.88;16.45;;;13.20;99.90;;;;;;5079049;28;20036;-80
2023/10/18 08:07:36;;;;;;;23.35;15.73;;;13.30;99.90;;;;;;5068137;28;20119;-80
2023/10/18 08:10:08;;;;;;;21.60;15.68;;;13.30;99.90;;;;;;5086317;28;20066;-77
2023/10/18 08:12:36;;;;;;;23.67;16.05;;;13.40;99.90;;;;;;5088982;28;20123;-81
2023/10/18 08:15:13;;;;;;;22.50;17.08;;;13.30;99.90;;;;;;5089684;28;20036;-80
2023/10/18 08:17:44;;;;;;;22.27;15.82;;;13.20;99.90;;;;;;5091280;28;20403;-78
2023/10/18 08:22:55;;;;;;;29.80;19.88;;;13.40;99.90;;;;;;5090712;28;19924;-78
2023/10/18 08:25:29;;;;;;;23.73;15.77;;;13.60;99.90;;;;;;5093850;28;20373;-79
2023/10/18 08:27:57;;;;;;;21.70;15.20;;;13.80;99.90;;;;;;5076045;28;20419;-79
2023/10/18 08:30:38;;;;;;;23.33;16.17;;;13.70;99.90;;;;;;5094363;28;20036;-79
2023/10/18 08:33:06;;;;;;;23.23;16.42;;;13.80;99.90;;;;;;5071001;28;20276;-79
2023/10/18 08:35:37;;;;;;;20.77;15.23;;;13.90;99.90;;;;;;5093519;28;20111;-80
2023/10/18 08:38:04;;;;;;;22.95;15.70;;;13.80;99.90;;;;;;5069327;28;20063;-79
2023/10/18 08:43:23;;;;;;;26.35;15.75;;;13.80;99.90;;;;;;5093426;28;20564;-80
2023/10/18 08:45:53;;;;;;;23.65;15.18;;;13.80;99.90;;;;;;5068278;28;20097;-80
2023/10/18 08:48:28;;;;;;;22.17;15.32;;;13.70;99.90;;;;;;5082088;28;20040;-79
2023/10/18 08:51:02;;;;;;;20.08;14.80;;;13.60;99.90;;;;;;5067728;28;20398;-78
2023/10/18 08:53:31;;;;;;;21.42;14.90;;;13.60;99.90;;;;;;5093216;28;20127;-81
2023/10/18 08:56:05;;;;;;;23.48;15.80;;;13.60;99.90;;;;;;5092342;28;20063;-79
2023/10/18 08:58:35;;;;;;;23.40;15.07;;;13.90;99.90;;;;;;5093882;28;20410;-79
2023/10/18 09:01:03;;;;;;;20.88;14.23;;;13.80;99.90;;;;;;5092987;28;20036;-78
2023/10/18 09:03:32;;;;;;;22.20;14.98;;;14.00;99.90;;;;;;5093272;28;20496;-80
2023/10/18 09:06:06;;;;;;;21.23;14.02;;;14.10;99.90;;;;;;5075202;28;20062;-78
2023/10/18 09:08:44;;;;;;;20.98;15.27;;;14.20;99.90;;;;;;5092999;28;20056;-80
2023/10/18 09:11:22;;;;;;;24.48;16.88;;;14.20;99.90;;;;;;5092907;28;20048;-79
2023/10/18 09:14:11;;;;;;;21.17;14.90;;;14.30;99.90;;;;;;5089824;28;20118;-78
2023/10/18 09:16:41;;;;;;;22.60;14.88;;;14.30;99.90;;;;;;5091917;28;20048;-79
2023/10/18 09:19:11;;;;;;;20.10;15.02;;;14.50;99.90;;;;;;5092708;28;20442;-79
2023/10/18 09:21:57;;;;;;;19.25;14.27;;;14.60;99.90;;;;;;5092767;28;20044;-79
2023/10/18 09:24:43;;;;;;;18.13;13.35;;;14.80;99.90;;;;;;5092274;28;20040;-80
2023/10/18 09:27:12;;;;;;;18.63;14.43;;;14.70;99.90;;;;;;5092328;28;20063;-80
2023/10/18 09:29:40;;;;;;;19.38;13.85;;;14.80;99.90;;;;;;5088434;28;20121;-81
2023/10/18 09:32:19;;;;;;;20.40;13.90;;;15.00;99.90;;;;;;5071803;28;20048;-82
2023/10/18 09:34:47;;;;;;;32.40;15.48;;;15.20;99.90;;;;;;5067769;28;20128;-81
2023/10/18 09:37:27;;;;;;;19.98;14.68;;;15.60;99.90;;;;;;5060026;28;20051;-81
2023/10/18 09:40:12;;;;;;;23.98;14.18;;;15.80;99.90;;;;;;5089561;28;20027;-80
2023/10/18 09:42:39;;;;;;;19.90;13.45;;;15.70;99.90;;;;;;5091260;28;20517;-81
2023/10/18 09:45:08;;;;;;;20.15;14.10;;;15.70;99.90;;;;;;5090428;28;20046;-83
2023/10/18 09:47:36;;;;;;;20.25;13.48;;;15.90;99.90;;;;;;5073214;28;20115;-81
2023/10/18 09:50:07;;;;;;;18.85;13.48;;;16.20;99.90;;;;;;5071664;28;20039;-80
2023/10/18 09:52:47;;;;;;;;;;;16.30;99.90;;;;;;5092861;28;20554;-82
2023/10/18 09:55:20;;;;;;;18.08;13.27;;;16.40;99.90;;;;;;5093933;28;19970;-77
2023/10/18 09:57:59;;;;;;;21.30;13.40;;;16.20;99.90;;;;;;5090701;28;20060;-77
2023/10/18 10:00:29;;;;;;;17.95;11.63;;;16.00;99.90;;;;;;5087005;28;20369;-77
2023/10/18 10:02:57;;;;;;;18.27;12.57;;;16.20;99.90;;;;;;5090220;28;20039;-77
2023/10/18 10:05:25;;;;;;;18.20;12.35;;;16.20;99.90;;;;;;5073121;28;20036;-77
2023/10/18 10:08:07;;;;;;;16.25;12.65;;;16.20;99.90;;;;;;5064118;28;20040;-76
2023/10/18 10:10:45;;;;;;;17.23;13.73;;;16.00;99.90;;;;;;5087962;28;20040;-79
2023/10/18 10:13:25;;;;;;;21.10;13.75;;;15.50;99.90;;;;;;5064271;28;20052;-79
2023/10/18 10:15:57;;;;;;;20.20;13.63;;;15.80;99.90;;;;;;5082462;28;20040;-79
2023/10/18 10:18:32;;;;;;;18.77;13.45;;;15.60;99.90;;;;;;5085944;28;20044;-78
2023/10/18 10:21:03;;;;;;;22.60;15.50;;;15.30;99.90;;;;;;5089427;28;20093;-78
2023/10/18 10:23:35;;;;;;;17.17;13.00;;;15.20;99.90;;;;;;5088381;28;20108;-80
2023/10/18 10:26:13;;;;;;;19.23;13.68;;;15.60;99.90;;;;;;5067936;28;20111;-81
2023/10/18 10:32:10;;;;;;;19.55;13.60;;;16.00;99.90;;;;;;5090094;28;20064;-79
2023/10/18 10:35:24;;;;;;;17.17;12.97;;;15.90;99.90;;;;;;5081282;28;20107;-81
2023/10/18 10:38:13;;;;;;;18.42;13.50;;;16.20;99.90;;;;;;5088239;28;20550;-81
2023/10/18 10:40:43;;;;;;;17.55;12.48;;;16.40;99.90;;;;;;5064632;28;20395;-79
2023/10/18 10:43:13;;;;;;;19.83;12.65;;;16.60;99.90;;;;;;5081547;28;20059;-81
2023/10/18 10:48:18;;;;;;;16.63;12.25;;;16.40;99.90;;;;;;5064951;28;20076;-80
2023/10/18 10:50:52;;;;;;;18.50;11.80;;;17.20;99.90;;;;;;5087522;28;20058;-79
2023/10/18 10:53:35;;;;;;;18.27;12.65;;;17.50;99.90;;;;;;5062456;28;20962;-82
2023/10/18 10:56:33;;;;;;;15.75;12.13;;;17.50;99.90;;;;;;5067883;28;20040;-78
2023/10/18 10:59:15;;;;;;;14.90;11.00;;;17.30;99.90;;;;;;5035925;28;20051;-80
2023/10/18 11:04:28;;;;;;;16.17;11.23;;;17.30;99.90;;;;;;5086924;28;20161;-82
2023/10/18 11:07:08;;;;;;;14.68;10.52;;;17.30;99.90;;;;;;5087626;28;20469;-82
2023/10/18 11:09:39;;;;;;;15.02;11.07;;;17.60;99.90;;;;;;5090447;28;20040;-82
2023/10/18 11:12:08;;;;;;;14.90;11.02;;;17.40;99.90;;;;;;5090116;28;20082;-80
2023/10/18 11:14:38;;;;;;;14.17;10.43;;;17.00;99.90;;;;;;5068607;28;20064;-81
2023/10/18 11:17:17;;;;;;;16.05;10.73;;;17.00;99.90;;;;;;5091017;28;20442;-82
2023/10/18 11:19:53;;;;;;;15.45;11.18;;;16.70;99.90;;;;;;5090659;28;20127;-82
2023/10/18 11:22:23;;;;;;;13.75;10.10;;;16.90;99.90;;;;;;5087838;28;20407;-80
2023/10/18 11:24:52;;;;;;;13.00;9.20;;;17.10;99.90;;;;;;5086545;28;20516;-81
2023/10/18 11:27:37;;;;;;;13.63;10.25;;;17.40;99.90;;;;;;5088608;28;20032;-79
2023/10/18 11:30:25;;;;;;;15.55;10.82;;;17.00;99.90;;;;;;5089242;28;20377;-81
2023/10/18 11:32:55;;;;;;;13.98;10.07;;;16.70;99.90;;;;;;5086746;28;20051;-79
2023/10/18 11:38:25;;;;;;;14.40;10.35;;;16.80;99.90;;;;;;5040816;28;20053;-81
2023/10/18 11:40:53;;;;;;;14.93;10.45;;;16.70;99.90;;;;;;5091594;28;20113;-82
2023/10/18 11:43:27;;;;;;;14.13;10.80;;;16.80;99.90;;;;;;5090631;28;20048;-82
2023/10/18 11:46:05;;;;;;;15.95;10.15;;;16.90;99.90;;;;;;5087656;28;20044;-83
2023/10/18 11:48:34;;;;;;;14.40;10.50;;;16.90;99.90;;;;;;5090278;28;20222;-82
2023/10/18 11:51:02;;;;;;;15.35;10.38;;;17.00;99.90;;;;;;5072153;28;20044;-81
2023/10/18 11:53:29;;;;;;;18.02;10.73;;;17.10;99.90;;;;;;5086859;28;20566;-82
2023/10/18 11:56:08;;;;;;;14.75;10.30;;;17.20;99.90;;;;;;5089768;28;20044;-81
2023/10/18 11:58:37;;;;;;;14.48;10.20;;;17.20;99.90;;;;;;5083575;28;20040;-87
2023/10/18 12:01:18;;;;;;;16.92;9.82;;;16.60;99.90;;;;;;5090966;28;20039;-87
2023/10/18 12:03:48;;;;;;;12.93;9.32;;;16.80;99.90;;;;;;5091567;28;20058;-81
2023/10/18 12:06:20;;;;;;;13.18;9.48;;;16.90;99.90;;;;;;5090374;28;20460;-83
2023/10/18 12:09:25;;;;;;;11.77;9.38;;;16.70;99.90;;;;;;5086979;28;20048;-85
2023/10/18 12:11:37;;;;;;;12.90;8.82;;;16.60;99.90;;;;;;5091399;28;20040;-87
2023/10/18 12:14:07;;;;;;;12.02;8.68;;;16.60;99.90;;;;;;5089524;28;20449;-82
2023/10/18 12:16:35;;;;;;;13.32;8.70;;;16.50;99.90;;;;;;5082075;28;20050;-80
2023/10/18 12:19:20;;;;;;;12.95;8.70;;;16.70;99.90;;;;;;5086034;28;20024;-81
2023/10/18 12:21:54;;;;;;;10.85;8.07;;;16.70;99.90;;;;;;5085776;28;20214;-79
2023/10/18 12:24:22;;;;;;;13.35;7.90;;;16.60;99.90;;;;;;5064682;28;20402;-82
2023/10/18 12:26:54;;;;;;;10.55;7.55;;;16.50;99.90;;;;;;5089712;28;20284;-84
2023/10/18 12:29:26;;;;;;;11.27;7.25;;;16.50;99.90;;;;;;5082604;28;20048;-80
2023/10/18 12:32:19;;;;;;;9.18;6.50;;;16.60;99.90;;;;;;5086243;28;20032;-82
2023/10/18 12:34:45;;;;;;;8.75;6.38;;;16.40;99.90;;;;;;5070490;28;20044;-81
2023/10/18 12:37:13;;;;;;;9.70;6.78;;;16.30;99.90;;;;;;5081268;28;20044;-83
2023/10/18 12:39:46;;;;;;;11.43;7.43;;;16.30;99.90;;;;;;5084034;28;20112;-81
2023/10/18 12:42:19;;;;;;;9.00;6.90;;;16.10;99.90;;;;;;5066778;28;20481;-83
2023/10/18 12:44:48;;;;;;;10.95;6.50;;;16.10;99.90;;;;;;5063249;28;20048;-83
2023/10/18 12:47:21;;;;;;;9.32;6.47;;;16.20;99.90;;;;;;5085868;28;20155;-82
2023/10/18 12:49:52;;;;;;;9.35;5.97;;;16.20;99.90;;;;;;5085034;28;20131;-83
2023/10/18 12:55:47;;;;;;;7.97;5.60;;;16.10;99.90;;;;;;5085318;28;20069;-82
2023/10/18 12:57:54;;;;;;;10.30;6.13;;;16.30;99.90;;;;;;5079761;28;20056;-81
2023/10/18 13:00:25;;;;;;;9.52;5.30;;;16.30;99.90;;;;;;5088435;28;20036;-83
2023/10/18 13:05:40;;;;;;;;;;;16.50;99.90;;;;;;5091686;28;20089;-85
2023/10/18 13:08:22;;;;;;;8.38;5.45;;;16.50;99.90;;;;;;5086724;28;19977;-85
2023/10/18 13:13:37;;;;;;;6.15;4.68;;;16.50;99.90;;;;;;5089572;28;20441;-84
2023/10/18 13:16:05;;;;;;;6.55;4.82;;;16.50;99.90;;;;;;5092819;28;20044;-85
2023/10/18 13:18:32;;;;;;;6.72;4.13;;;16.50;99.90;;;;;;5071792;28;20044;-88
2023/10/18 13:21:07;;;;;;;6.15;4.38;;;16.50;99.90;;;;;;5092387;28;20468;-84
2023/10/18 13:23:34;;;;;;;8.15;4.18;;;16.60;99.90;;;;;;5088258;28;20036;-84
2023/10/18 13:26:03;;;;;;;7.18;4.82;;;16.60;99.90;;;;;;5080590;28;20078;-83
2023/10/18 13:28:36;;;;;;;;;;;16.60;99.90;;;;;;5083576;28;20056;-88
2023/10/18 13:31:07;;;;;;;6.22;4.40;;;16.80;99.90;;;;;;5091797;28;20335;-84
2023/10/18 13:33:34;;;;;;;6.70;4.50;;;16.60;99.90;;;;;;5071735;28;20047;-85
2023/10/18 13:36:03;;;;;;;6.18;4.22;;;16.60;99.90;;;;;;5072152;28;20222;-80
2023/10/18 13:38:30;;;;;;;7.22;4.60;;;16.50;99.90;;;;;;5070243;28;20044;-86
2023/10/18 13:41:00;;;;;;;8.82;4.55;;;16.40;99.90;;;;;;5090873;28;20121;-90
2023/10/18 13:43:28;;;;;;;6.18;4.32;;;16.30;99.90;;;;;;5072604;28;20048;-90
2023/10/18 13:45:59;;;;;;;6.95;4.40;;;16.30;99.90;;;;;;5096893;28;20044;-91
2023/10/18 13:48:38;;;;;;;7.00;4.47;;;16.20;99.90;;;;;;5078234;28;20599;-86
2023/10/18 13:51:10;;;;;;;6.40;4.55;;;16.20;99.90;;;;;;5083999;28;20048;-87
2023/10/18 13:53:38;;;;;;;7.22;4.40;;;16.30;99.90;;;;;;5093591;28;20096;-89
2023/10/18 13:56:09;;;;;;;6.93;4.65;;;16.20;99.90;;;;;;5092836;28;20043;-88
2023/10/18 13:58:40;;;;;;;6.68;4.47;;;16.20;99.90;;;;;;5090476;28;20040;-88
2023/10/18 14:01:16;;;;;;;6.60;4.38;;;16.10;99.90;;;;;;5095852;28;20119;-89
2023/10/18 14:03:53;;;;;;;8.10;4.60;;;16.00;99.90;;;;;;5093455;28;20107;-91
2023/10/18 14:06:22;;;;;;;6.70;4.43;;;16.00;99.90;;;;;;5068998;28;20823;-87
2023/10/18 14:09:10;;;;;;;6.13;4.18;;;16.10;99.90;;;;;;5075213;28;20044;-86
2023/10/18 14:11:39;;;;;;;6.88;4.68;;;16.10;99.90;;;;;;5091719;28;20028;-88
2023/10/18 14:14:07;;;;;;;6.55;4.40;;;16.10;99.90;;;;;;5095397;28;20052;-87
2023/10/18 14:16:38;;;;;;;7.28;4.63;;;16.00;99.90;;;;;;5080317;28;20051;-90
2023/10/18 14:19:05;;;;;;;6.28;4.53;;;15.90;99.90;;;;;;5091060;28;20036;-87
2023/10/18 14:21:38;;;;;;;5.25;4.00;;;15.80;99.90;;;;;;5075215;28;20056;-88